createdAt,value
2018-07-12T00:00:24.628Z,0.00
2018-07-12T00:01:24.583Z,0.00
2018-07-12T00:02:24.547Z,0.00
2018-07-12T00:03:24.515Z,0.00
2018-07-12T00:04:24.481Z,0.00
2018-07-12T00:05:24.444Z,0.00
2018-07-12T00:06:24.404Z,0.00
2018-07-12T00:07:24.369Z,0.00
2018-07-12T00:08:24.367Z,0.00
2018-07-12T00:09:24.355Z,0.00
2018-07-12T00:10:24.263Z,0.00
2018-07-12T00:11:24.215Z,0.00
2018-07-12T00:12:24.172Z,0.00
2018-07-12T00:13:24.151Z,0.00
2018-07-12T00:14:24.110Z,0.00
2018-07-12T00:15:24.079Z,0.00
2018-07-12T00:16:24.035Z,0.00
2018-07-12T00:17:24.010Z,0.00
2018-07-12T00:18:23.948Z,0.00
2018-07-12T00:19:23.929Z,0.00
2018-07-12T00:20:23.915Z,0.00
2018-07-12T00:21:23.846Z,0.00
2018-07-12T00:22:23.819Z,0.00
2018-07-12T00:23:23.773Z,0.00
2018-07-12T00:24:23.737Z,0.00
2018-07-12T00:25:23.700Z,0.00
2018-07-12T00:26:23.660Z,0.00
2018-07-12T00:27:23.626Z,0.00
2018-07-12T00:28:23.586Z,0.00
2018-07-12T00:29:23.582Z,0.00
2018-07-12T00:30:23.523Z,0.00
2018-07-12T00:31:23.493Z,0.00
2018-07-12T00:32:23.434Z,0.00
2018-07-12T00:33:23.417Z,0.00
2018-07-12T00:34:23.366Z,0.00
2018-07-12T00:35:23.329Z,0.00
2018-07-12T00:36:23.308Z,0.00
2018-07-12T00:37:23.258Z,0.00
2018-07-12T00:38:23.230Z,0.00
2018-07-12T00:39:23.185Z,0.00
2018-07-12T00:40:23.151Z,0.00
2018-07-12T00:41:23.106Z,0.00
2018-07-12T00:42:23.079Z,0.00
2018-07-12T00:43:23.032Z,0.00
2018-07-12T00:44:23.007Z,0.00
2018-07-12T00:45:22.970Z,0.00
2018-07-12T00:46:22.927Z,0.00
2018-07-12T00:47:22.913Z,0.00
2018-07-12T00:48:22.862Z,0.00
2018-07-12T00:49:22.828Z,0.00
2018-07-12T00:50:22.787Z,0.00
2018-07-12T00:51:22.749Z,0.00
2018-07-12T00:52:22.742Z,0.00
2018-07-12T00:53:22.725Z,0.00
2018-07-12T00:54:58.367Z,0.00
2018-07-12T00:55:22.597Z,0.00
2018-07-12T00:56:22.569Z,0.00
2018-07-12T00:57:22.579Z,0.00
2018-07-12T00:58:22.488Z,0.00
2018-07-12T00:59:22.458Z,0.00
2018-07-12T01:00:22.416Z,0.00
2018-07-12T01:01:22.432Z,0.00
2018-07-12T01:02:22.349Z,0.00
2018-07-12T01:03:22.301Z,0.00
2018-07-12T01:04:22.278Z,0.00
2018-07-12T01:05:22.238Z,0.00
2018-07-12T01:06:22.205Z,0.00
2018-07-12T01:07:22.167Z,0.00
2018-07-12T01:08:22.123Z,0.00
2018-07-12T01:09:22.104Z,0.00
2018-07-12T01:10:22.066Z,0.00
2018-07-12T01:11:22.018Z,0.00
2018-07-12T01:12:21.984Z,0.00
2018-07-12T01:13:21.937Z,0.00
2018-07-12T01:14:21.916Z,0.00
2018-07-12T01:15:21.865Z,0.00
2018-07-12T01:16:21.851Z,0.00
2018-07-12T01:17:21.791Z,0.00
2018-07-12T01:18:21.769Z,0.00
2018-07-12T01:19:21.734Z,0.00
2018-07-12T01:20:21.674Z,0.00
2018-07-12T01:21:21.641Z,0.00
2018-07-12T01:22:21.603Z,0.00
2018-07-12T01:23:21.573Z,0.00
2018-07-12T01:24:21.529Z,0.00
2018-07-12T01:25:21.504Z,0.00
2018-07-12T01:26:21.464Z,0.00
2018-07-12T01:27:21.434Z,0.00
2018-07-12T01:28:21.422Z,0.00
2018-07-12T01:29:21.345Z,0.00
2018-07-12T01:30:21.315Z,0.00
2018-07-12T01:31:21.296Z,0.00
2018-07-12T01:32:21.249Z,0.00
2018-07-12T01:33:21.205Z,0.00
2018-07-12T01:34:21.163Z,0.00
2018-07-12T01:35:21.134Z,0.00
2018-07-12T01:36:21.108Z,0.00
2018-07-12T01:37:21.071Z,0.00
2018-07-12T01:38:21.016Z,0.00
2018-07-12T01:39:20.978Z,0.00
2018-07-12T01:40:20.935Z,0.00
2018-07-12T01:41:21.807Z,0.00
2018-07-12T01:42:20.861Z,0.00
2018-07-12T01:43:20.826Z,0.00
2018-07-12T01:44:20.807Z,0.00
2018-07-12T01:45:20.773Z,0.00
2018-07-12T01:46:20.727Z,0.00
2018-07-12T01:47:20.686Z,0.00
2018-07-12T01:48:20.641Z,0.00
2018-07-12T01:49:20.623Z,0.00
2018-07-12T01:50:20.602Z,0.00
2018-07-12T01:51:20.535Z,0.00
2018-07-12T01:52:20.510Z,0.00
2018-07-12T01:53:20.462Z,0.00
2018-07-12T01:54:20.420Z,0.00
2018-07-12T01:55:20.386Z,0.00
2018-07-12T01:56:20.356Z,0.00
2018-07-12T01:57:20.319Z,0.00
2018-07-12T01:58:20.277Z,0.00
2018-07-12T01:59:20.277Z,0.00
2018-07-12T02:00:20.197Z,0.00
2018-07-12T02:01:20.160Z,0.00
2018-07-12T02:02:20.141Z,0.00
2018-07-12T02:03:20.092Z,0.00
2018-07-12T02:04:20.076Z,0.00
2018-07-12T02:05:20.010Z,0.00
2018-07-12T02:06:19.969Z,0.00
2018-07-12T02:07:19.974Z,0.00
2018-07-12T02:08:19.892Z,0.00
2018-07-12T02:09:19.868Z,0.00
2018-07-12T02:10:19.844Z,0.00
2018-07-12T02:11:19.782Z,0.00
2018-07-12T02:12:19.761Z,0.00
2018-07-12T02:13:19.803Z,0.00
2018-07-12T02:14:19.720Z,0.00
2018-07-12T02:15:19.645Z,0.00
2018-07-12T02:16:19.606Z,0.00
2018-07-12T02:17:19.559Z,0.00
2018-07-12T02:18:19.538Z,0.00
2018-07-12T02:19:19.498Z,0.00
2018-07-12T02:20:19.451Z,0.00
2018-07-12T02:21:19.422Z,0.00
2018-07-12T02:22:19.387Z,0.00
2018-07-12T02:23:19.338Z,0.00
2018-07-12T02:24:19.306Z,0.00
2018-07-12T02:25:19.278Z,0.00
2018-07-12T02:26:19.226Z,0.00
2018-07-12T02:27:19.196Z,0.00
2018-07-12T02:28:19.185Z,0.00
2018-07-12T02:29:19.110Z,0.00
2018-07-12T02:30:19.092Z,0.00
2018-07-12T02:31:19.042Z,0.00
2018-07-12T02:32:19.007Z,0.00
2018-07-12T02:33:18.980Z,0.00
2018-07-12T02:34:18.926Z,0.00
2018-07-12T02:35:18.887Z,0.00
2018-07-12T02:36:18.852Z,0.00
2018-07-12T02:37:18.807Z,0.00
2018-07-12T02:38:18.788Z,0.00
2018-07-12T02:39:18.740Z,0.00
2018-07-12T02:40:18.708Z,0.00
2018-07-12T02:41:18.665Z,0.00
2018-07-12T02:42:18.637Z,0.00
2018-07-12T02:43:18.597Z,0.00
2018-07-12T02:44:18.544Z,0.00
2018-07-12T02:45:18.507Z,0.00
2018-07-12T02:46:18.490Z,0.00
2018-07-12T02:47:18.444Z,0.00
2018-07-12T02:48:18.396Z,0.00
2018-07-12T02:49:18.376Z,0.00
2018-07-12T02:50:18.311Z,0.00
2018-07-12T02:51:18.303Z,0.00
2018-07-12T02:52:18.250Z,0.00
2018-07-12T02:53:18.213Z,0.00
2018-07-12T02:54:18.170Z,0.00
2018-07-12T02:55:18.155Z,0.00
2018-07-12T02:56:18.089Z,0.00
2018-07-12T02:57:18.063Z,0.00
2018-07-12T02:58:18.015Z,0.00
2018-07-12T02:59:17.993Z,0.00
2018-07-12T03:00:17.957Z,0.00
2018-07-12T03:01:17.911Z,0.00
2018-07-12T03:02:17.879Z,0.00
2018-07-12T03:03:17.825Z,0.00
2018-07-12T03:04:17.783Z,0.00
2018-07-12T03:05:17.774Z,0.00
2018-07-12T03:06:17.711Z,0.00
2018-07-12T03:07:17.677Z,0.00
2018-07-12T03:08:17.658Z,0.00
2018-07-12T03:09:17.593Z,0.00
2018-07-12T03:10:17.546Z,0.00
2018-07-12T03:11:17.514Z,0.00
2018-07-12T03:12:17.474Z,0.00
2018-07-12T03:13:17.455Z,0.00
2018-07-12T03:14:17.387Z,0.00
2018-07-12T03:15:17.354Z,0.00
2018-07-12T03:16:17.357Z,0.00
2018-07-12T03:17:17.279Z,0.00
2018-07-12T03:18:17.245Z,0.00
2018-07-12T03:19:17.200Z,0.00
2018-07-12T03:20:17.182Z,0.00
2018-07-12T03:21:17.126Z,0.00
2018-07-12T03:22:17.089Z,0.00
2018-07-12T03:23:17.090Z,0.00
2018-07-12T03:24:17.007Z,0.00
2018-07-12T03:25:17.038Z,0.00
2018-07-12T03:26:16.955Z,0.00
2018-07-12T03:27:16.912Z,0.00
2018-07-12T03:28:16.877Z,0.00
2018-07-12T03:29:16.821Z,0.00
2018-07-12T03:30:16.784Z,0.00
2018-07-12T03:31:18.992Z,0.00
2018-07-12T03:32:16.748Z,0.00
2018-07-12T03:33:16.832Z,0.00
2018-07-12T03:34:16.633Z,0.00
2018-07-12T03:35:16.586Z,0.00
2018-07-12T03:36:16.590Z,0.00
2018-07-12T03:37:16.514Z,0.00
2018-07-12T03:38:16.476Z,0.00
2018-07-12T03:39:16.440Z,0.00
2018-07-12T03:40:16.394Z,0.00
2018-07-12T03:41:16.349Z,0.00
2018-07-12T03:42:16.408Z,0.00
2018-07-12T03:43:16.289Z,0.00
2018-07-12T03:44:16.298Z,0.00
2018-07-12T03:45:16.198Z,0.00
2018-07-12T03:46:16.192Z,0.00
2018-07-12T03:47:16.131Z,0.00
2018-07-12T03:48:16.105Z,0.00
2018-07-12T03:49:16.051Z,0.00
2018-07-12T03:50:16.005Z,0.00
2018-07-12T03:51:15.995Z,0.00
2018-07-12T03:52:16.032Z,0.00
2018-07-12T03:53:15.900Z,0.00
2018-07-12T03:54:15.871Z,0.00
2018-07-12T03:55:15.819Z,0.00
2018-07-12T03:56:15.787Z,0.00
2018-07-12T03:57:15.843Z,0.00
2018-07-12T03:58:15.772Z,0.00
2018-07-12T03:59:15.681Z,0.00
2018-07-12T04:00:15.651Z,0.00
2018-07-12T04:01:15.619Z,0.00
2018-07-12T04:02:15.566Z,0.00
2018-07-12T04:03:15.564Z,0.00
2018-07-12T04:04:15.514Z,0.00
2018-07-12T04:05:15.447Z,0.00
2018-07-12T04:06:15.401Z,0.00
2018-07-12T04:07:15.370Z,0.00
2018-07-12T04:08:15.329Z,0.00
2018-07-12T04:09:15.304Z,0.00
2018-07-12T04:10:15.268Z,0.00
2018-07-12T04:11:15.218Z,0.00
2018-07-12T04:12:15.191Z,0.00
2018-07-12T04:13:15.172Z,0.00
2018-07-12T04:14:15.093Z,0.00
2018-07-12T04:15:15.105Z,0.00
2018-07-12T04:16:15.032Z,0.00
2018-07-12T04:17:14.977Z,0.00
2018-07-12T04:18:14.939Z,0.00
2018-07-12T04:19:14.908Z,0.00
2018-07-12T04:20:14.863Z,0.00
2018-07-12T04:21:14.824Z,0.00
2018-07-12T04:22:14.817Z,0.00
2018-07-12T04:23:14.745Z,0.00
2018-07-12T04:24:14.703Z,0.00
2018-07-12T04:25:14.683Z,0.00
2018-07-12T04:26:14.641Z,0.00
2018-07-12T04:27:14.606Z,0.00
2018-07-12T04:28:14.554Z,0.00
2018-07-12T04:29:14.522Z,0.00
2018-07-12T04:30:14.464Z,0.00
2018-07-12T04:31:14.457Z,0.00
2018-07-12T04:32:14.402Z,0.00
2018-07-12T04:33:14.377Z,0.00
2018-07-12T04:34:14.342Z,0.00
2018-07-12T04:35:14.289Z,0.00
2018-07-12T04:36:14.266Z,0.00
2018-07-12T04:37:14.214Z,0.00
2018-07-12T04:38:14.174Z,0.00
2018-07-12T04:39:14.135Z,0.00
2018-07-12T04:40:14.112Z,0.00
2018-07-12T04:41:14.137Z,0.00
2018-07-12T04:42:14.022Z,0.00
2018-07-12T04:43:13.982Z,0.00
2018-07-12T04:44:13.951Z,0.00
2018-07-12T04:45:13.912Z,0.00
2018-07-12T04:46:13.884Z,0.00
2018-07-12T04:47:13.840Z,0.00
2018-07-12T04:48:13.800Z,0.00
2018-07-12T04:49:13.765Z,0.00
2018-07-12T04:50:13.720Z,0.00
2018-07-12T04:51:13.731Z,0.00
2018-07-12T04:52:13.731Z,0.00
2018-07-12T04:53:13.617Z,0.00
2018-07-12T04:54:13.553Z,0.00
2018-07-12T04:55:13.532Z,0.00
2018-07-12T04:56:13.501Z,0.00
2018-07-12T04:57:13.453Z,0.00
2018-07-12T04:58:13.421Z,2.00
2018-07-12T04:59:13.382Z,10.11
2018-07-12T05:00:13.337Z,12.77
2018-07-12T05:01:13.304Z,10.39
2018-07-12T05:02:13.274Z,7.82
2018-07-12T05:03:13.249Z,5.62
2018-07-12T05:04:13.189Z,3.91
2018-07-12T05:05:13.190Z,2.67
2018-07-12T05:06:13.126Z,1.72
2018-07-12T05:07:13.099Z,7.15
2018-07-12T05:08:13.167Z,7.43
2018-07-12T05:09:13.015Z,4.67
2018-07-12T05:10:13.009Z,9.34
2018-07-12T05:11:12.950Z,7.63
2018-07-12T05:12:12.936Z,4.29
2018-07-12T05:13:12.861Z,2.76
2018-07-12T05:14:12.812Z,0.00
2018-07-12T05:15:12.800Z,0.00
2018-07-12T05:16:12.787Z,0.00
2018-07-12T05:17:12.754Z,0.00
2018-07-12T05:18:12.674Z,0.00
2018-07-12T05:19:12.632Z,0.00
2018-07-12T05:20:12.589Z,0.00
2018-07-12T05:21:12.572Z,0.00
2018-07-12T05:22:12.521Z,0.00
2018-07-12T05:23:12.485Z,0.00
2018-07-12T05:24:12.453Z,0.00
2018-07-12T05:25:12.415Z,0.00
2018-07-12T05:26:12.368Z,0.00
2018-07-12T05:27:12.345Z,0.00
2018-07-12T05:28:12.309Z,0.00
2018-07-12T05:29:12.251Z,0.00
2018-07-12T05:30:12.230Z,0.00
2018-07-12T05:31:12.192Z,0.00
2018-07-12T05:32:12.166Z,0.00
2018-07-12T05:33:12.121Z,0.00
2018-07-12T05:34:12.095Z,0.00
2018-07-12T05:35:12.069Z,0.00
2018-07-12T05:36:12.032Z,0.00
2018-07-12T05:37:11.990Z,0.00
2018-07-12T05:38:11.960Z,2.19
2018-07-12T05:39:11.953Z,5.54
2018-07-12T05:40:11.864Z,2.00
2018-07-12T05:41:11.826Z,0.57
2018-07-12T05:42:11.816Z,0.00
2018-07-12T05:43:11.757Z,0.00
2018-07-12T05:44:11.730Z,0.48
2018-07-12T05:45:11.706Z,0.00
2018-07-12T05:46:11.656Z,0.67
2018-07-12T05:47:11.627Z,0.48
2018-07-12T05:48:11.578Z,0.57
2018-07-12T05:49:11.534Z,1.34
2018-07-12T05:50:11.500Z,3.06
2018-07-12T05:51:11.475Z,2.67
2018-07-12T05:52:11.425Z,1.91
2018-07-12T05:53:11.390Z,3.53
2018-07-12T05:54:11.355Z,6.50
2018-07-12T05:55:11.334Z,7.45
2018-07-12T05:56:11.306Z,6.59
2018-07-12T05:57:11.253Z,8.69
2018-07-12T05:58:11.215Z,7.07
2018-07-12T05:59:11.195Z,4.58
2018-07-12T06:00:11.140Z,11.85
2018-07-12T06:01:11.127Z,10.03
2018-07-12T06:02:11.147Z,9.75
2018-07-12T06:03:11.053Z,10.03
2018-07-12T06:04:10.995Z,13.58
2018-07-12T06:05:10.999Z,21.52
2018-07-12T06:06:10.930Z,28.61
2018-07-12T06:07:10.900Z,43.54
2018-07-12T06:08:10.877Z,44.50
2018-07-12T06:09:10.816Z,49.66
2018-07-12T06:10:10.830Z,62.14
2018-07-12T06:11:10.763Z,68.74
2018-07-12T06:12:10.731Z,78.89
2018-07-12T06:13:10.717Z,80.33
2018-07-12T06:14:10.667Z,82.09
2018-07-12T06:15:10.640Z,87.46
2018-07-12T06:16:10.751Z,84.82
2018-07-12T06:17:10.588Z,93.11
2018-07-12T06:18:10.521Z,98.47
2018-07-12T06:19:10.473Z,89.13
2018-07-12T06:20:10.447Z,99.99
2018-07-12T06:21:10.414Z,99.99
2018-07-12T06:22:10.401Z,99.99
2018-07-12T06:23:10.345Z,94.17
2018-07-12T06:24:10.305Z,98.86
2018-07-12T06:25:10.306Z,90.91
2018-07-12T06:26:10.241Z,92.92
2018-07-12T06:27:10.209Z,86.98
2018-07-12T06:28:10.172Z,80.76
2018-07-12T06:29:10.141Z,92.63
2018-07-12T06:30:10.112Z,87.84
2018-07-12T06:31:10.081Z,76.64
2018-07-12T06:32:10.033Z,79.32
2018-07-12T06:33:10.005Z,91.10
2018-07-12T06:34:09.971Z,84.30
2018-07-12T06:35:09.934Z,97.71
2018-07-12T06:36:09.901Z,97.71
2018-07-12T06:37:09.954Z,91.58
2018-07-12T06:38:09.841Z,82.19
2018-07-12T06:39:09.834Z,89.42
2018-07-12T06:40:09.750Z,99.24
2018-07-12T06:41:09.747Z,99.99
2018-07-12T06:42:09.722Z,99.99
2018-07-12T06:43:09.682Z,99.99
2018-07-12T06:44:09.639Z,99.99
2018-07-12T06:45:09.587Z,97.71
2018-07-12T06:46:09.579Z,94.55
2018-07-12T06:47:09.530Z,99.99
2018-07-12T06:48:09.500Z,99.99
2018-07-12T06:49:09.456Z,98.00
2018-07-12T06:50:09.437Z,99.34
2018-07-12T06:51:09.407Z,99.99
2018-07-12T06:52:09.370Z,99.99
2018-07-12T06:53:09.339Z,99.99
2018-07-12T06:54:09.310Z,99.99
2018-07-12T06:55:09.266Z,99.99
2018-07-12T06:56:09.232Z,99.99
2018-07-12T06:57:09.198Z,99.99
2018-07-12T06:58:09.156Z,99.99
2018-07-12T06:59:09.131Z,99.99
2018-07-12T07:00:09.097Z,99.99
2018-07-12T07:01:09.069Z,99.99
2018-07-12T07:02:09.036Z,99.99
2018-07-12T07:03:09.075Z,99.99
2018-07-12T07:04:08.976Z,99.99
2018-07-12T07:05:08.942Z,99.99
2018-07-12T07:06:08.909Z,99.99
2018-07-12T07:07:08.862Z,99.99
2018-07-12T07:08:08.837Z,99.99
2018-07-12T07:09:08.797Z,99.99
2018-07-12T07:10:08.776Z,99.99
2018-07-12T07:11:08.751Z,99.99
2018-07-12T07:12:08.718Z,99.99
2018-07-12T07:13:08.663Z,99.99
2018-07-12T07:14:08.646Z,99.99
2018-07-12T07:15:08.614Z,99.99
2018-07-12T07:16:08.584Z,99.99
2018-07-12T07:17:08.545Z,99.99
2018-07-12T07:18:08.508Z,99.99
2018-07-12T07:19:08.486Z,99.99
2018-07-12T07:20:08.497Z,99.99
2018-07-12T07:21:08.437Z,99.99
2018-07-12T07:22:08.381Z,99.99
2018-07-12T07:23:08.357Z,99.99
2018-07-12T07:24:08.384Z,99.99
2018-07-12T07:25:08.295Z,99.99
2018-07-12T07:26:08.281Z,99.99
2018-07-12T07:27:08.225Z,99.99
2018-07-12T07:28:08.196Z,99.99
2018-07-12T07:29:08.180Z,99.99
2018-07-12T07:30:08.137Z,99.99
2018-07-12T07:31:08.094Z,99.99
2018-07-12T07:32:08.059Z,99.99
2018-07-12T07:33:08.042Z,99.99
2018-07-12T07:34:08.007Z,99.99
2018-07-12T07:35:07.977Z,99.99
2018-07-12T07:36:07.946Z,99.99
2018-07-12T07:37:07.912Z,99.99
2018-07-12T07:38:07.975Z,99.99
2018-07-12T07:39:07.835Z,99.99
2018-07-12T07:40:07.813Z,99.99
2018-07-12T07:41:07.782Z,99.99
2018-07-12T07:42:07.762Z,99.99
2018-07-12T07:43:07.787Z,99.99
2018-07-12T07:44:07.704Z,99.99
2018-07-12T07:45:07.663Z,99.99
2018-07-12T07:46:07.634Z,99.99
2018-07-12T07:47:07.616Z,99.99
2018-07-12T07:48:07.562Z,99.99
2018-07-12T07:49:07.543Z,99.99
2018-07-12T07:50:07.508Z,99.99
2018-07-12T07:51:07.480Z,99.99
2018-07-12T07:52:07.442Z,99.99
2018-07-12T07:53:07.416Z,99.99
2018-07-12T07:54:07.379Z,99.99
2018-07-12T07:55:07.349Z,99.99
2018-07-12T07:56:07.317Z,99.99
2018-07-12T07:57:07.300Z,99.99
2018-07-12T07:58:07.274Z,99.99
2018-07-12T07:59:07.216Z,99.99
2018-07-12T08:00:07.181Z,99.99
2018-07-12T08:01:07.158Z,99.99
2018-07-12T08:02:07.119Z,99.99
2018-07-12T08:03:07.098Z,99.99
2018-07-12T08:04:07.061Z,99.99
2018-07-12T08:05:07.017Z,99.99
2018-07-12T08:06:06.992Z,99.99
2018-07-12T08:07:06.963Z,99.99
2018-07-12T08:08:06.923Z,99.99
2018-07-12T08:09:06.907Z,99.99
2018-07-12T08:10:06.864Z,99.99
2018-07-12T08:11:06.838Z,99.99
2018-07-12T08:12:06.835Z,99.99
2018-07-12T08:13:06.777Z,99.99
2018-07-12T08:14:06.777Z,99.99
2018-07-12T08:15:06.727Z,99.99
2018-07-12T08:16:06.676Z,99.99
2018-07-12T08:17:06.644Z,99.99
2018-07-12T08:18:06.618Z,99.99
2018-07-12T08:19:06.603Z,99.99
2018-07-12T08:20:06.583Z,99.99
2018-07-12T08:21:07.424Z,99.99
2018-07-12T08:22:06.493Z,99.99
2018-07-12T08:23:06.460Z,99.99
2018-07-12T08:24:06.417Z,99.99
2018-07-12T08:25:06.393Z,99.99
2018-07-12T08:26:06.364Z,99.99
2018-07-12T08:27:06.336Z,99.99
2018-07-12T08:28:06.312Z,99.99
2018-07-12T08:29:06.321Z,99.99
2018-07-12T08:30:06.253Z,99.99
2018-07-12T08:31:06.234Z,99.99
2018-07-12T08:32:06.188Z,99.99
2018-07-12T08:33:06.168Z,99.99
2018-07-12T08:34:06.127Z,99.99
2018-07-12T08:35:06.088Z,99.99
2018-07-12T08:36:06.069Z,99.99
2018-07-12T08:37:06.113Z,99.99
2018-07-12T08:38:05.974Z,99.99
2018-07-12T08:39:05.966Z,99.99
2018-07-12T08:40:05.929Z,99.99
2018-07-12T08:41:05.887Z,99.99
2018-07-12T08:42:05.874Z,99.99
2018-07-12T08:43:05.828Z,99.99
2018-07-12T08:44:05.814Z,99.99
2018-07-12T08:45:05.755Z,99.99
2018-07-12T08:46:05.755Z,99.99
2018-07-12T08:47:05.708Z,99.99
2018-07-12T08:48:05.713Z,99.99
2018-07-12T08:49:05.675Z,99.99
2018-07-12T08:50:05.628Z,99.99
2018-07-12T08:51:05.587Z,99.99
2018-07-12T08:52:05.562Z,99.99
2018-07-12T08:53:05.579Z,99.99
2018-07-12T08:54:05.492Z,99.99
2018-07-12T08:55:05.455Z,99.99
2018-07-12T08:56:05.427Z,99.99
2018-07-12T08:57:05.422Z,99.99
2018-07-12T08:58:05.372Z,99.99
2018-07-12T08:59:05.354Z,99.99
2018-07-12T09:00:05.347Z,99.99
2018-07-12T09:01:05.273Z,99.99
2018-07-12T09:02:05.245Z,99.99
2018-07-12T09:03:05.288Z,99.99
2018-07-12T09:04:05.177Z,99.99
2018-07-12T09:05:05.143Z,99.99
2018-07-12T09:06:05.119Z,99.99
2018-07-12T09:07:05.139Z,99.99
2018-07-12T09:08:05.044Z,99.99
2018-07-12T09:09:05.042Z,99.99
2018-07-12T09:10:05.034Z,99.99
2018-07-12T09:11:04.947Z,99.99
2018-07-12T09:12:04.920Z,99.99
2018-07-12T09:13:04.885Z,99.99
2018-07-12T09:14:04.864Z,99.99
2018-07-12T09:15:04.822Z,99.99
2018-07-12T09:16:04.799Z,99.99
2018-07-12T09:17:04.763Z,99.99
2018-07-12T09:18:04.733Z,99.99
2018-07-12T09:19:04.692Z,99.99
2018-07-12T09:20:04.685Z,99.99
2018-07-12T09:21:04.667Z,99.99
2018-07-12T09:22:04.632Z,99.99
2018-07-12T09:23:04.572Z,99.99
2018-07-12T09:24:04.528Z,99.99
2018-07-12T09:25:04.577Z,99.99
2018-07-12T09:26:04.456Z,99.99
2018-07-12T09:27:04.441Z,99.99
2018-07-12T09:28:04.408Z,99.99
2018-07-12T09:29:04.397Z,99.99
2018-07-12T09:30:04.347Z,99.99
2018-07-12T09:31:04.336Z,99.99
2018-07-12T09:32:04.270Z,99.99
2018-07-12T09:33:04.238Z,99.99
2018-07-12T09:34:04.228Z,99.99
2018-07-12T09:35:04.185Z,99.99
2018-07-12T09:36:04.163Z,99.99
2018-07-12T09:37:04.155Z,99.99
2018-07-12T09:38:04.087Z,99.99
2018-07-12T09:39:04.056Z,99.99
2018-07-12T09:40:04.029Z,99.99
2018-07-12T09:41:03.982Z,99.99
2018-07-12T09:42:03.949Z,99.99
2018-07-12T09:43:04.009Z,99.99
2018-07-12T09:44:03.903Z,99.99
2018-07-12T09:45:03.863Z,99.99
2018-07-12T09:46:03.826Z,99.99
2018-07-12T09:47:03.801Z,99.99
2018-07-12T09:48:03.760Z,99.99
2018-07-12T09:49:03.816Z,99.99
2018-07-12T09:50:03.704Z,99.99
2018-07-12T09:51:03.675Z,99.99
2018-07-12T09:52:03.748Z,99.99
2018-07-12T09:53:03.601Z,99.99
2018-07-12T09:54:03.640Z,99.99
2018-07-12T09:55:03.570Z,99.99
2018-07-12T09:56:03.634Z,99.99
2018-07-12T09:57:03.515Z,99.99
2018-07-12T09:58:03.465Z,99.99
2018-07-12T09:59:03.423Z,99.99
2018-07-12T10:00:03.383Z,99.99
2018-07-12T10:01:03.358Z,99.99
2018-07-12T10:02:03.337Z,99.99
2018-07-12T10:03:03.319Z,99.99
2018-07-12T10:04:03.306Z,99.99
2018-07-12T10:05:03.234Z,99.99
2018-07-12T10:06:03.194Z,99.99
2018-07-12T10:07:03.177Z,99.99
2018-07-12T10:08:03.161Z,99.99
2018-07-12T10:09:03.133Z,99.99
2018-07-12T10:10:03.085Z,99.99
2018-07-12T10:11:03.058Z,99.99
2018-07-12T10:12:03.019Z,99.99
2018-07-12T10:13:03.005Z,99.99
2018-07-12T10:14:02.962Z,99.99
2018-07-12T10:15:02.969Z,99.99
2018-07-12T10:16:02.907Z,99.99
2018-07-12T10:17:02.874Z,99.99
2018-07-12T10:18:02.849Z,99.99
2018-07-12T10:19:02.813Z,99.99
2018-07-12T10:20:02.842Z,99.99
2018-07-12T10:21:02.744Z,99.99
2018-07-12T10:22:02.717Z,99.99
2018-07-12T10:23:02.682Z,99.99
2018-07-12T10:24:02.653Z,99.99
2018-07-12T10:25:02.631Z,99.99
2018-07-12T10:26:02.595Z,99.99
2018-07-12T10:27:02.580Z,99.99
2018-07-12T10:28:02.553Z,99.99
2018-07-12T10:29:02.500Z,99.99
2018-07-12T10:30:02.465Z,99.99
2018-07-12T10:31:02.435Z,99.99
2018-07-12T10:32:02.424Z,99.99
2018-07-12T10:33:02.398Z,99.99
2018-07-12T10:34:02.364Z,99.99
2018-07-12T10:35:02.356Z,99.99
2018-07-12T10:36:02.320Z,99.99
2018-07-12T10:37:02.255Z,99.99
2018-07-12T10:38:02.228Z,99.99
2018-07-12T10:39:02.193Z,99.99
2018-07-12T10:40:02.167Z,99.99
2018-07-12T10:41:02.143Z,99.99
2018-07-12T10:42:02.164Z,99.99
2018-07-12T10:43:02.066Z,99.99
2018-07-12T10:44:02.056Z,99.99
2018-07-12T10:45:02.038Z,98.15
2018-07-12T10:46:01.984Z,99.99
2018-07-12T10:47:01.956Z,99.99
2018-07-12T10:48:01.958Z,99.99
2018-07-12T10:49:01.908Z,99.99
2018-07-12T10:50:01.865Z,99.99
2018-07-12T10:51:01.844Z,99.99
2018-07-12T10:52:01.805Z,94.87
2018-07-12T10:53:01.787Z,96.12
2018-07-12T10:54:01.762Z,95.98
2018-07-12T10:55:01.714Z,99.07
2018-07-12T10:56:01.696Z,97.04
2018-07-12T10:57:01.722Z,96.36
2018-07-12T10:58:01.624Z,98.58
2018-07-12T10:59:01.687Z,99.99
2018-07-12T11:00:01.587Z,99.99
2018-07-12T11:01:01.532Z,99.99
2018-07-12T11:02:01.530Z,97.38
2018-07-12T11:03:01.481Z,99.99
2018-07-12T11:04:01.458Z,99.99
2018-07-12T11:05:01.427Z,95.16
2018-07-12T11:06:01.398Z,98.92
2018-07-12T11:07:01.361Z,99.99
2018-07-12T11:08:01.346Z,99.99
2018-07-12T11:09:01.313Z,99.99
2018-07-12T11:10:01.293Z,99.99
2018-07-12T11:11:01.243Z,99.99
2018-07-12T11:12:01.207Z,99.99
2018-07-12T11:13:01.190Z,99.99
2018-07-12T11:14:01.147Z,98.05
2018-07-12T11:15:01.131Z,96.84
2018-07-12T11:16:01.114Z,96.31
2018-07-12T11:17:01.089Z,95.20
2018-07-12T11:18:01.076Z,90.28
2018-07-12T11:19:01.066Z,94.34
2018-07-12T11:20:00.973Z,89.07
2018-07-12T11:21:00.987Z,85.98
2018-07-12T11:22:00.928Z,89.17
2018-07-12T11:23:00.933Z,86.85
2018-07-12T11:24:00.878Z,88.25
2018-07-12T11:25:00.836Z,85.94
2018-07-12T11:26:00.800Z,87.87
2018-07-12T11:27:00.791Z,90.57
2018-07-12T11:28:00.765Z,89.89
2018-07-12T11:29:00.728Z,91.77
2018-07-12T11:30:00.701Z,86.85
2018-07-12T11:31:00.695Z,88.06
2018-07-12T11:32:00.645Z,87.19
2018-07-12T11:33:00.633Z,88.73
2018-07-12T11:34:00.600Z,89.17
2018-07-12T11:35:00.579Z,88.02
2018-07-12T11:36:00.544Z,86.52
2018-07-12T11:37:00.512Z,92.41
2018-07-12T11:38:00.473Z,90.28
2018-07-12T11:39:00.447Z,91.63
2018-07-12T11:40:00.399Z,86.75
2018-07-12T11:41:00.447Z,83.80
2018-07-12T11:42:00.434Z,84.09
2018-07-12T11:43:00.326Z,86.06
2018-07-12T11:44:00.298Z,87.23
2018-07-12T11:45:00.272Z,83.31
2018-07-12T11:46:00.253Z,84.28
2018-07-12T11:47:00.220Z,86.31
2018-07-12T11:48:00.168Z,82.64
2018-07-12T11:49:00.155Z,84.47
2018-07-12T11:50:00.139Z,84.08
2018-07-12T11:51:00.106Z,79.02
2018-07-12T11:52:00.066Z,75.57
2018-07-12T11:53:00.076Z,78.05
2018-07-12T11:54:00.011Z,78.58
2018-07-12T11:54:59.983Z,75.77
2018-07-12T11:55:59.973Z,73.03
2018-07-12T11:56:59.942Z,74.74
2018-07-12T11:57:59.920Z,74.66
2018-07-12T11:58:59.884Z,77.98
2018-07-12T11:59:59.866Z,77.98
2018-07-12T12:00:59.836Z,79.17
2018-07-12T12:01:59.820Z,77.73
2018-07-12T12:02:59.778Z,80.82
2018-07-12T12:03:59.775Z,77.59
2018-07-12T12:04:59.888Z,79.74
2018-07-12T12:05:59.701Z,80.94
2018-07-12T12:06:59.752Z,77.78
2018-07-12T12:07:59.647Z,78.56
2018-07-12T12:08:59.626Z,78.79
2018-07-12T12:09:59.590Z,76.64
2018-07-12T12:10:59.563Z,74.64
2018-07-12T12:11:59.539Z,73.84
2018-07-12T12:12:59.554Z,71.42
2018-07-12T12:13:59.493Z,69.96
2018-07-12T12:14:59.463Z,71.64
2018-07-12T12:15:59.443Z,67.47
2018-07-12T12:16:59.423Z,67.47
2018-07-12T12:17:59.389Z,68.28
2018-07-12T12:18:59.386Z,70.29
2018-07-12T12:19:59.346Z,71.19
2018-07-12T12:20:59.316Z,73.31
2018-07-12T12:21:59.281Z,75.60
2018-07-12T12:22:59.263Z,75.07
2018-07-12T12:23:59.247Z,77.45
2018-07-12T12:24:59.224Z,79.54
2018-07-12T12:25:59.289Z,80.28
2018-07-12T12:26:59.242Z,84.72
2018-07-12T12:27:59.138Z,83.33
2018-07-12T12:28:59.123Z,86.18
2018-07-12T12:29:59.092Z,94.10
2018-07-12T12:30:59.082Z,99.02
2018-07-12T12:31:59.044Z,96.17
2018-07-12T12:32:59.027Z,99.99
2018-07-12T12:33:58.991Z,97.04
2018-07-12T12:34:58.967Z,99.99
2018-07-12T12:35:58.979Z,99.99
2018-07-12T12:36:59.515Z,99.99
2018-07-12T12:37:58.919Z,99.99
2018-07-12T12:38:58.864Z,99.99
2018-07-12T12:39:58.910Z,96.94
2018-07-12T12:40:58.812Z,90.90
2018-07-12T12:41:58.855Z,83.59
2018-07-12T12:42:58.760Z,83.00
2018-07-12T12:43:58.727Z,77.94
2018-07-12T12:44:58.711Z,76.75
2018-07-12T12:45:58.667Z,73.49
2018-07-12T12:46:58.659Z,73.33
2018-07-12T12:47:58.614Z,74.73
2018-07-12T12:48:58.582Z,70.45
2018-07-12T12:49:58.564Z,70.71
2018-07-12T12:50:58.559Z,70.12
2018-07-12T12:51:58.508Z,71.34
2018-07-12T12:52:58.497Z,73.79
2018-07-12T12:53:58.471Z,76.04
2018-07-12T12:54:58.455Z,79.20
2018-07-12T12:55:58.407Z,76.59
2018-07-12T12:56:58.379Z,77.53
2018-07-12T12:57:58.364Z,77.03
2018-07-12T12:58:58.384Z,75.71
2018-07-12T12:59:58.351Z,72.61
2018-07-12T13:00:58.281Z,72.80
2018-07-12T13:01:58.258Z,72.51
2018-07-12T13:02:58.264Z,71.25
2018-07-12T13:03:58.211Z,72.67